VJC517 VVNB-VVDN
Flight info
| Callsign | VJC517 |
|---|---|
| Flight time | 1h 2m |
| Altitude | 28000 |
| Route | VITRA2A NAH W1 CAHEO CAHEO1F |
| Aircraft | A321/M-SDE3FGHIRWY/LB1 |
Departure
| Time | 2026-04-22 13:40 |
|---|---|
| Airport | Noi Bai International Airport (VVNB) |
Arrival
| Time | 2026-04-22 14:42 |
|---|---|
| Airport | Da Nang International Airport (VVDN) |
| Time | Latitude | Longitude | Altitude | Speed | Heading |
|---|---|---|---|---|---|
| 2026-04-22 13:10 | 21.21565 | 105.80342 | 48 ft | 0 kts | 198° |
| 2026-04-22 13:30 | 21.21566 | 105.80342 | 21 ft | 1 kts | 198° |
| 2026-04-22 13:30 | 21.21579 | 105.80346 | 47 ft | 3 kts | 198° |
| 2026-04-22 13:30 | 21.21598 | 105.80353 | 45 ft | 3 kts | 198° |
| 2026-04-22 13:31 | 21.21618 | 105.80360 | 48 ft | 3 kts | 199° |
| 2026-04-22 13:31 | 21.21637 | 105.80367 | 45 ft | 3 kts | 200° |
| 2026-04-22 13:31 | 21.21656 | 105.80375 | 46 ft | 3 kts | 204° |
| 2026-04-22 13:31 | 21.21674 | 105.80385 | 47 ft | 3 kts | 216° |
| 2026-04-22 13:32 | 21.21687 | 105.80398 | 48 ft | 3 kts | 253° |
| 2026-04-22 13:32 | 21.21689 | 105.80407 | 47 ft | 0 kts | 287° |
| 2026-04-22 13:32 | 21.21689 | 105.80408 | 47 ft | 0 kts | 287° |
| 2026-04-22 13:34 | 21.21696 | 105.80382 | 49 ft | 10 kts | 287° |
| 2026-04-22 13:35 | 21.21720 | 105.80299 | 49 ft | 11 kts | 287° |
| 2026-04-22 13:35 | 21.21745 | 105.80213 | 49 ft | 16 kts | 287° |
| 2026-04-22 13:35 | 21.21786 | 105.80072 | 49 ft | 21 kts | 288° |
| 2026-04-22 13:35 | 21.21833 | 105.79978 | 48 ft | 11 kts | 341° |
| 2026-04-22 13:36 | 21.21909 | 105.79953 | 49 ft | 12 kts | 314° |
| 2026-04-22 13:36 | 21.21949 | 105.79835 | 48 ft | 21 kts | 287° |
| 2026-04-22 13:36 | 21.21992 | 105.79685 | 48 ft | 21 kts | 287° |
| 2026-04-22 13:36 | 21.22033 | 105.79542 | 49 ft | 20 kts | 287° |
| 2026-04-22 13:37 | 21.22073 | 105.79406 | 48 ft | 19 kts | 287° |
| 2026-04-22 13:37 | 21.22115 | 105.79256 | 49 ft | 21 kts | 287° |
| 2026-04-22 13:37 | 21.22159 | 105.79111 | 49 ft | 20 kts | 287° |
| 2026-04-22 13:37 | 21.22200 | 105.78968 | 50 ft | 20 kts | 287° |
| 2026-04-22 13:38 | 21.22240 | 105.78830 | 50 ft | 19 kts | 287° |
| 2026-04-22 13:38 | 21.22325 | 105.78611 | 50 ft | 11 kts | 338° |
| 2026-04-22 13:38 | 21.22394 | 105.78621 | 50 ft | 9 kts | 17° |
| 2026-04-22 13:39 | 21.22451 | 105.78677 | 50 ft | 13 kts | 78° |
| 2026-04-22 13:39 | 21.22446 | 105.78718 | 50 ft | 2 kts | 106° |
| 2026-04-22 13:39 | 21.22398 | 105.78883 | 51 ft | 58 kts | 107° |
| 2026-04-22 13:39 | 21.22213 | 105.79524 | 47 ft | 119 kts | 107° |
| 2026-04-22 13:40 | 21.21921 | 105.80533 | 59 ft | 161 kts | 106° |
| 2026-04-22 13:40 | 21.21573 | 105.81687 | 526 ft | 164 kts | 109° |
| 2026-04-22 13:40 | 21.21248 | 105.82886 | 997 ft | 169 kts | 98° |
| 2026-04-22 13:40 | 21.21194 | 105.84190 | 1326 ft | 184 kts | 94° |
| 2026-04-22 13:41 | 21.21112 | 105.85589 | 1722 ft | 191 kts | 99° |
| 2026-04-22 13:41 | 21.20948 | 105.87083 | 1890 ft | 215 kts | 99° |
| 2026-04-22 13:41 | 21.20749 | 105.88770 | 2188 ft | 240 kts | 101° |
| 2026-04-22 13:41 | 21.20532 | 105.90609 | 2750 ft | 254 kts | 99° |
| 2026-04-22 13:42 | 21.20311 | 105.92522 | 3461 ft | 261 kts | 100° |
| 2026-04-22 13:42 | 21.19925 | 105.94406 | 4138 ft | 263 kts | 118° |
| 2026-04-22 13:42 | 21.18793 | 105.95951 | 4851 ft | 263 kts | 146° |
| 2026-04-22 13:42 | 21.17125 | 105.96728 | 5484 ft | 265 kts | 173° |
| 2026-04-22 13:43 | 21.15279 | 105.97034 | 6104 ft | 273 kts | 173° |
| 2026-04-22 13:43 | 21.13389 | 105.97419 | 6717 ft | 280 kts | 172° |
| 2026-04-22 13:43 | 21.11457 | 105.97825 | 7358 ft | 286 kts | 172° |
| 2026-04-22 13:43 | 21.09492 | 105.98239 | 8041 ft | 290 kts | 172° |
| 2026-04-22 13:44 | 21.07526 | 105.98653 | 8703 ft | 294 kts | 172° |
| 2026-04-22 13:44 | 21.05472 | 105.99085 | 9380 ft | 299 kts | 173° |
| 2026-04-22 13:44 | 21.03439 | 105.99514 | 9931 ft | 308 kts | 172° |
| 2026-04-22 13:44 | 21.01262 | 105.99968 | 10066 ft | 330 kts | 172° |
| 2026-04-22 13:45 | 20.98942 | 106.00452 | 10335 ft | 346 kts | 172° |
| 2026-04-22 13:45 | 20.96557 | 106.00952 | 10884 ft | 352 kts | 172° |
| 2026-04-22 13:45 | 20.94111 | 106.01465 | 11521 ft | 355 kts | 172° |
| 2026-04-22 13:45 | 20.91673 | 106.01976 | 12154 ft | 359 kts | 172° |
| 2026-04-22 13:46 | 20.89247 | 106.02485 | 12780 ft | 362 kts | 172° |
| 2026-04-22 13:46 | 20.86758 | 106.03007 | 13415 ft | 365 kts | 172° |
| 2026-04-22 13:46 | 20.84254 | 106.03532 | 13987 ft | 369 kts | 172° |
| 2026-04-22 13:46 | 20.81720 | 106.04064 | 14542 ft | 372 kts | 172° |
| 2026-04-22 13:47 | 20.79163 | 106.04599 | 15092 ft | 376 kts | 172° |
| 2026-04-22 13:47 | 20.76579 | 106.05137 | 15637 ft | 379 kts | 173° |
| 2026-04-22 13:47 | 20.73969 | 106.05604 | 16176 ft | 382 kts | 174° |
| 2026-04-22 13:47 | 20.71333 | 106.06056 | 16711 ft | 385 kts | 174° |
| 2026-04-22 13:48 | 20.68676 | 106.06510 | 17232 ft | 388 kts | 174° |
| 2026-04-22 13:48 | 20.65992 | 106.06935 | 17748 ft | 391 kts | 175° |
| 2026-04-22 13:48 | 20.63284 | 106.07346 | 18223 ft | 394 kts | 175° |
| 2026-04-22 13:48 | 20.60557 | 106.07760 | 18650 ft | 397 kts | 175° |
| 2026-04-22 13:49 | 20.57813 | 106.08175 | 19087 ft | 400 kts | 175° |
| 2026-04-22 13:49 | 20.55089 | 106.08587 | 19505 ft | 402 kts | 175° |
| 2026-04-22 13:49 | 20.52311 | 106.09054 | 19921 ft | 406 kts | 173° |
| 2026-04-22 13:49 | 20.49528 | 106.09624 | 20334 ft | 408 kts | 172° |
| 2026-04-22 13:50 | 20.46729 | 106.10207 | 20747 ft | 411 kts | 172° |
| 2026-04-22 13:50 | 20.43916 | 106.10794 | 21155 ft | 413 kts | 172° |
| 2026-04-22 13:50 | 20.41084 | 106.11357 | 21558 ft | 415 kts | 174° |
| 2026-04-22 13:50 | 20.38230 | 106.11856 | 21942 ft | 418 kts | 171° |
| 2026-04-22 13:51 | 20.35466 | 106.12912 | 22324 ft | 425 kts | 158° |
| 2026-04-22 13:51 | 20.32797 | 106.14297 | 22708 ft | 428 kts | 156° |
| 2026-04-22 13:51 | 20.30150 | 106.15771 | 23092 ft | 431 kts | 154° |
| 2026-04-22 13:51 | 20.27496 | 106.17274 | 23446 ft | 433 kts | 154° |
| 2026-04-22 13:52 | 20.24828 | 106.18787 | 23755 ft | 435 kts | 154° |
| 2026-04-22 13:52 | 20.22130 | 106.20260 | 24055 ft | 437 kts | 156° |
| 2026-04-22 13:52 | 20.19392 | 106.21691 | 24354 ft | 439 kts | 156° |
| 2026-04-22 13:52 | 20.16640 | 106.23124 | 24654 ft | 442 kts | 156° |
| 2026-04-22 13:53 | 20.13869 | 106.24566 | 24963 ft | 444 kts | 156° |
| 2026-04-22 13:53 | 20.11123 | 106.25995 | 25266 ft | 447 kts | 156° |
| 2026-04-22 13:53 | 20.08320 | 106.27454 | 25571 ft | 449 kts | 157° |
| 2026-04-22 13:53 | 20.05507 | 106.28917 | 25875 ft | 451 kts | 157° |
| 2026-04-22 13:54 | 20.02658 | 106.30353 | 26162 ft | 453 kts | 158° |
| 2026-04-22 13:54 | 19.99795 | 106.31778 | 26459 ft | 456 kts | 158° |
| 2026-04-22 13:54 | 19.96917 | 106.33209 | 26743 ft | 458 kts | 158° |
| 2026-04-22 13:54 | 19.94019 | 106.34640 | 27018 ft | 460 kts | 158° |
| 2026-04-22 13:55 | 19.91095 | 106.36035 | 27323 ft | 462 kts | 159° |
| 2026-04-22 13:55 | 19.88173 | 106.37472 | 27616 ft | 464 kts | 157° |
| 2026-04-22 13:55 | 19.85262 | 106.38978 | 27744 ft | 466 kts | 156° |
| 2026-04-22 13:55 | 19.82348 | 106.40491 | 27768 ft | 466 kts | 156° |
| 2026-04-22 13:56 | 19.79440 | 106.42002 | 27769 ft | 465 kts | 156° |
| 2026-04-22 13:56 | 19.76524 | 106.43516 | 27769 ft | 465 kts | 156° |
| 2026-04-22 13:56 | 19.73617 | 106.45026 | 27769 ft | 465 kts | 156° |
| 2026-04-22 13:56 | 19.70710 | 106.46535 | 27773 ft | 465 kts | 156° |
| 2026-04-22 13:57 | 19.67808 | 106.48042 | 27761 ft | 464 kts | 156° |
| 2026-04-22 13:57 | 19.64909 | 106.49544 | 27778 ft | 463 kts | 156° |
| 2026-04-22 13:57 | 19.61993 | 106.50990 | 27777 ft | 462 kts | 158° |
| 2026-04-22 13:57 | 19.59057 | 106.52382 | 27778 ft | 462 kts | 158° |
| 2026-04-22 13:58 | 19.56117 | 106.53773 | 27780 ft | 462 kts | 158° |
| 2026-04-22 13:58 | 19.53154 | 106.55095 | 27780 ft | 462 kts | 160° |
| 2026-04-22 13:58 | 19.50179 | 106.56373 | 27780 ft | 462 kts | 160° |
| 2026-04-22 13:58 | 19.47201 | 106.57650 | 27779 ft | 462 kts | 160° |
| 2026-04-22 13:59 | 19.44223 | 106.58927 | 27779 ft | 461 kts | 160° |
| 2026-04-22 13:59 | 19.41248 | 106.60201 | 27776 ft | 461 kts | 160° |
| 2026-04-22 13:59 | 19.38270 | 106.61476 | 27775 ft | 461 kts | 160° |
| 2026-04-22 13:59 | 19.35291 | 106.62756 | 27766 ft | 462 kts | 159° |
| 2026-04-22 14:00 | 19.32362 | 106.64156 | 27775 ft | 462 kts | 157° |
| 2026-04-22 14:00 | 19.29444 | 106.65592 | 27780 ft | 462 kts | 157° |
| 2026-04-22 14:00 | 19.26573 | 106.67010 | 27779 ft | 462 kts | 157° |
| 2026-04-22 14:00 | 19.23658 | 106.68446 | 27779 ft | 462 kts | 157° |
| 2026-04-22 14:01 | 19.20744 | 106.69884 | 27776 ft | 462 kts | 157° |
| 2026-04-22 14:01 | 19.17832 | 106.71321 | 27773 ft | 462 kts | 157° |
| 2026-04-22 14:01 | 19.14912 | 106.72760 | 27774 ft | 462 kts | 158° |
| 2026-04-22 14:01 | 19.11995 | 106.74196 | 27779 ft | 462 kts | 157° |
| 2026-04-22 14:02 | 19.09082 | 106.75632 | 27779 ft | 462 kts | 157° |
| 2026-04-22 14:02 | 19.06174 | 106.77062 | 27786 ft | 461 kts | 157° |
| 2026-04-22 14:02 | 19.03264 | 106.78505 | 27787 ft | 461 kts | 156° |
| 2026-04-22 14:02 | 19.00373 | 106.79988 | 27781 ft | 461 kts | 156° |
| 2026-04-22 14:03 | 18.97492 | 106.81471 | 27782 ft | 461 kts | 155° |
| 2026-04-22 14:03 | 18.94613 | 106.82958 | 27785 ft | 460 kts | 156° |
| 2026-04-22 14:03 | 18.91733 | 106.84438 | 27783 ft | 460 kts | 156° |
| 2026-04-22 14:03 | 18.88851 | 106.85920 | 27777 ft | 461 kts | 156° |
| 2026-04-22 14:04 | 18.85969 | 106.87398 | 27785 ft | 460 kts | 156° |
| 2026-04-22 14:04 | 18.83087 | 106.88882 | 27785 ft | 460 kts | 156° |
| 2026-04-22 14:04 | 18.80211 | 106.90358 | 27785 ft | 460 kts | 155° |
| 2026-04-22 14:04 | 18.77370 | 106.91815 | 27795 ft | 460 kts | 155° |
| 2026-04-22 14:05 | 18.74459 | 106.93312 | 27793 ft | 460 kts | 156° |
| 2026-04-22 14:05 | 18.71618 | 106.94772 | 27788 ft | 460 kts | 156° |
| 2026-04-22 14:05 | 18.65860 | 106.97728 | 27777 ft | 460 kts | 156° |
| 2026-04-22 14:06 | 18.62972 | 106.99209 | 27777 ft | 461 kts | 156° |
| 2026-04-22 14:06 | 18.60091 | 107.00685 | 27782 ft | 461 kts | 155° |
| 2026-04-22 14:06 | 18.57205 | 107.02168 | 27788 ft | 461 kts | 156° |
| 2026-04-22 14:06 | 18.54320 | 107.03641 | 27790 ft | 461 kts | 156° |
| 2026-04-22 14:07 | 18.51439 | 107.05116 | 27795 ft | 461 kts | 155° |
| 2026-04-22 14:07 | 18.48549 | 107.06597 | 27801 ft | 461 kts | 155° |
| 2026-04-22 14:07 | 18.45664 | 107.08076 | 27792 ft | 461 kts | 155° |
| 2026-04-22 14:07 | 18.42777 | 107.09555 | 27796 ft | 461 kts | 155° |
| 2026-04-22 14:08 | 18.39893 | 107.11038 | 27793 ft | 462 kts | 156° |
| 2026-04-22 14:08 | 18.37001 | 107.12519 | 27786 ft | 463 kts | 156° |
| 2026-04-22 14:08 | 18.35083 | 107.13498 | 27789 ft | 463 kts | 155° |
| 2026-04-22 14:08 | 18.31246 | 107.15462 | 27793 ft | 463 kts | 155° |
| 2026-04-22 14:09 | 18.28350 | 107.16943 | 27790 ft | 463 kts | 155° |
| 2026-04-22 14:09 | 18.25451 | 107.18421 | 27803 ft | 463 kts | 155° |
| 2026-04-22 14:09 | 18.22556 | 107.19899 | 27810 ft | 462 kts | 155° |
| 2026-04-22 14:09 | 18.19657 | 107.21379 | 27808 ft | 462 kts | 155° |
| 2026-04-22 14:10 | 18.17706 | 107.22377 | 27804 ft | 463 kts | 155° |
| 2026-04-22 14:10 | 18.14845 | 107.23834 | 27809 ft | 462 kts | 156° |
| 2026-04-22 14:10 | 18.11914 | 107.25227 | 27801 ft | 462 kts | 157° |
| 2026-04-22 14:10 | 18.08970 | 107.26600 | 27796 ft | 463 kts | 157° |
| 2026-04-22 14:11 | 18.06017 | 107.27974 | 27790 ft | 463 kts | 157° |
| 2026-04-22 14:11 | 18.03070 | 107.29344 | 27803 ft | 462 kts | 157° |
| 2026-04-22 14:11 | 18.00131 | 107.30715 | 27810 ft | 464 kts | 157° |
| 2026-04-22 14:11 | 17.97182 | 107.32086 | 27808 ft | 463 kts | 157° |
| 2026-04-22 14:12 | 17.94240 | 107.33452 | 27808 ft | 460 kts | 157° |
| 2026-04-22 14:12 | 17.91321 | 107.34809 | 27810 ft | 459 kts | 157° |
| 2026-04-22 14:12 | 17.88384 | 107.36175 | 27811 ft | 461 kts | 157° |
| 2026-04-22 14:12 | 17.85443 | 107.37544 | 27811 ft | 463 kts | 157° |
| 2026-04-22 14:13 | 17.82506 | 107.38910 | 27809 ft | 461 kts | 157° |
| 2026-04-22 14:13 | 17.79601 | 107.40261 | 27810 ft | 464 kts | 157° |
| 2026-04-22 14:13 | 17.76604 | 107.41649 | 27816 ft | 465 kts | 157° |
| 2026-04-22 14:13 | 17.73686 | 107.43005 | 27816 ft | 465 kts | 157° |
| 2026-04-22 14:14 | 17.70731 | 107.44374 | 27817 ft | 464 kts | 156° |
| 2026-04-22 14:14 | 17.67782 | 107.45744 | 27808 ft | 464 kts | 157° |
| 2026-04-22 14:14 | 17.64822 | 107.47115 | 27818 ft | 463 kts | 157° |
| 2026-04-22 14:14 | 17.61875 | 107.48481 | 27810 ft | 463 kts | 156° |
| 2026-04-22 14:15 | 17.58937 | 107.49841 | 27814 ft | 460 kts | 156° |
| 2026-04-22 14:15 | 17.56012 | 107.51196 | 27812 ft | 461 kts | 156° |
| 2026-04-22 14:15 | 17.53061 | 107.52562 | 27814 ft | 464 kts | 156° |
| 2026-04-22 14:15 | 17.50112 | 107.53926 | 27813 ft | 462 kts | 156° |
| 2026-04-22 14:16 | 17.47167 | 107.55289 | 27812 ft | 463 kts | 156° |
| 2026-04-22 14:16 | 17.44210 | 107.56658 | 27814 ft | 465 kts | 156° |
| 2026-04-22 14:16 | 17.41247 | 107.58028 | 27814 ft | 466 kts | 156° |
| 2026-04-22 14:16 | 17.38328 | 107.59377 | 27811 ft | 463 kts | 156° |
| 2026-04-22 14:17 | 17.35385 | 107.60737 | 27818 ft | 458 kts | 156° |
| 2026-04-22 14:17 | 17.32514 | 107.62063 | 27647 ft | 445 kts | 156° |
| 2026-04-22 14:17 | 17.29708 | 107.63360 | 27270 ft | 437 kts | 156° |
| 2026-04-22 14:17 | 17.26951 | 107.64632 | 26869 ft | 430 kts | 156° |
| 2026-04-22 14:18 | 17.24202 | 107.65821 | 26403 ft | 425 kts | 158° |
| 2026-04-22 14:18 | 17.21469 | 107.66962 | 25924 ft | 421 kts | 159° |
| 2026-04-22 14:18 | 17.18743 | 107.68054 | 25414 ft | 418 kts | 159° |
| 2026-04-22 14:18 | 17.16036 | 107.69131 | 24946 ft | 414 kts | 159° |
| 2026-04-22 14:19 | 17.13358 | 107.70194 | 24505 ft | 410 kts | 159° |
| 2026-04-22 14:19 | 17.10704 | 107.71243 | 24035 ft | 407 kts | 160° |
| 2026-04-22 14:19 | 17.08049 | 107.72231 | 23570 ft | 403 kts | 161° |
| 2026-04-22 14:19 | 17.05389 | 107.73135 | 23068 ft | 400 kts | 162° |
| 2026-04-22 14:20 | 17.00131 | 107.74899 | 22016 ft | 394 kts | 162° |
| 2026-04-22 14:20 | 16.97533 | 107.75770 | 21518 ft | 390 kts | 162° |
| 2026-04-22 14:20 | 16.94941 | 107.76638 | 21050 ft | 386 kts | 162° |
| 2026-04-22 14:21 | 16.90024 | 107.78285 | 20777 ft | 361 kts | 162° |
| 2026-04-22 14:21 | 16.87667 | 107.79118 | 20458 ft | 355 kts | 158° |
| 2026-04-22 14:22 | 16.83221 | 107.81263 | 19686 ft | 350 kts | 154° |
| 2026-04-22 14:22 | 16.81031 | 107.82366 | 19267 ft | 349 kts | 154° |
| 2026-04-22 14:22 | 16.76675 | 107.84559 | 18474 ft | 346 kts | 154° |
| 2026-04-22 14:23 | 16.74510 | 107.85650 | 18074 ft | 345 kts | 155° |
| 2026-04-22 14:23 | 16.72353 | 107.86736 | 17623 ft | 344 kts | 155° |
| 2026-04-22 14:23 | 16.70205 | 107.87818 | 17239 ft | 341 kts | 155° |
| 2026-04-22 14:23 | 16.68069 | 107.88880 | 16865 ft | 338 kts | 155° |
| 2026-04-22 14:24 | 16.65958 | 107.89939 | 16483 ft | 336 kts | 155° |
| 2026-04-22 14:24 | 16.63858 | 107.90996 | 16089 ft | 334 kts | 155° |
| 2026-04-22 14:24 | 16.61777 | 107.92044 | 15738 ft | 331 kts | 155° |
| 2026-04-22 14:24 | 16.59714 | 107.93082 | 15381 ft | 328 kts | 155° |
| 2026-04-22 14:25 | 16.57668 | 107.94112 | 15039 ft | 325 kts | 155° |
| 2026-04-22 14:25 | 16.55634 | 107.95134 | 14671 ft | 324 kts | 156° |
| 2026-04-22 14:25 | 16.53640 | 107.96138 | 14331 ft | 321 kts | 155° |
| 2026-04-22 14:25 | 16.51633 | 107.97137 | 13994 ft | 319 kts | 157° |
| 2026-04-22 14:26 | 16.49627 | 107.98106 | 13655 ft | 317 kts | 157° |
| 2026-04-22 14:26 | 16.47637 | 107.99063 | 13405 ft | 311 kts | 157° |
| 2026-04-22 14:26 | 16.45685 | 108.00003 | 13273 ft | 300 kts | 157° |
| 2026-04-22 14:26 | 16.43841 | 108.00890 | 13096 ft | 291 kts | 156° |
| 2026-04-22 14:27 | 16.42010 | 108.01766 | 12778 ft | 289 kts | 157° |
| 2026-04-22 14:27 | 16.40194 | 108.02638 | 12442 ft | 286 kts | 156° |
| 2026-04-22 14:27 | 16.38389 | 108.03506 | 12043 ft | 284 kts | 156° |
| 2026-04-22 14:27 | 16.36597 | 108.04367 | 11633 ft | 283 kts | 156° |
| 2026-04-22 14:28 | 16.34816 | 108.05222 | 11240 ft | 281 kts | 156° |
| 2026-04-22 14:28 | 16.33049 | 108.06086 | 10833 ft | 280 kts | 156° |
| 2026-04-22 14:28 | 16.31297 | 108.06963 | 10424 ft | 278 kts | 155° |
| 2026-04-22 14:28 | 16.29560 | 108.07835 | 10039 ft | 276 kts | 155° |
| 2026-04-22 14:29 | 16.27828 | 108.08688 | 9631 ft | 275 kts | 156° |
| 2026-04-22 14:29 | 16.26093 | 108.09503 | 9185 ft | 272 kts | 165° |
| 2026-04-22 14:29 | 16.24265 | 108.09606 | 8993 ft | 261 kts | 194° |
| 2026-04-22 14:29 | 16.22723 | 108.08794 | 8991 ft | 243 kts | 225° |
| 2026-04-22 14:30 | 16.21663 | 108.07437 | 9000 ft | 242 kts | 234° |
| 2026-04-22 14:30 | 16.20593 | 108.06085 | 9000 ft | 242 kts | 226° |
| 2026-04-22 14:30 | 16.19365 | 108.04883 | 9003 ft | 243 kts | 220° |
| 2026-04-22 14:30 | 16.18024 | 108.03820 | 8988 ft | 242 kts | 215° |
| 2026-04-22 14:31 | 16.16615 | 108.02871 | 8696 ft | 241 kts | 211° |
| 2026-04-22 14:31 | 16.15137 | 108.02060 | 8392 ft | 240 kts | 205° |
| 2026-04-22 14:31 | 16.13584 | 108.01435 | 8061 ft | 240 kts | 198° |
| 2026-04-22 14:31 | 16.12008 | 108.00947 | 7768 ft | 239 kts | 195° |
| 2026-04-22 14:32 | 16.10384 | 108.00596 | 7462 ft | 238 kts | 188° |
| 2026-04-22 14:32 | 16.08744 | 108.00390 | 7185 ft | 236 kts | 185° |
| 2026-04-22 14:32 | 16.07101 | 108.00345 | 6909 ft | 235 kts | 179° |
| 2026-04-22 14:32 | 16.05467 | 108.00437 | 6618 ft | 235 kts | 177° |
| 2026-04-22 14:33 | 16.03850 | 108.00548 | 6502 ft | 233 kts | 175° |
| 2026-04-22 14:33 | 16.02230 | 108.00759 | 6506 ft | 235 kts | 171° |
| 2026-04-22 14:33 | 16.00618 | 108.01073 | 6506 ft | 236 kts | 168° |
| 2026-04-22 14:33 | 15.99024 | 108.01479 | 6510 ft | 236 kts | 165° |
| 2026-04-22 14:34 | 15.97451 | 108.01975 | 6510 ft | 236 kts | 162° |
| 2026-04-22 14:34 | 15.95925 | 108.02607 | 6508 ft | 236 kts | 155° |
| 2026-04-22 14:34 | 15.94465 | 108.03392 | 6472 ft | 236 kts | 151° |
| 2026-04-22 14:34 | 15.93077 | 108.04288 | 6185 ft | 235 kts | 146° |
| 2026-04-22 14:35 | 15.91770 | 108.05302 | 5923 ft | 233 kts | 141° |
| 2026-04-22 14:35 | 15.90618 | 108.06448 | 5759 ft | 224 kts | 133° |
| 2026-04-22 14:35 | 15.89660 | 108.07673 | 5618 ft | 214 kts | 127° |
| 2026-04-22 14:35 | 15.88814 | 108.08922 | 5373 ft | 209 kts | 126° |
| 2026-04-22 14:36 | 15.88029 | 108.10186 | 5103 ft | 206 kts | 121° |
| 2026-04-22 14:36 | 15.87411 | 108.11468 | 4998 ft | 190 kts | 115° |
| 2026-04-22 14:36 | 15.86960 | 108.12708 | 4869 ft | 177 kts | 109° |
| 2026-04-22 14:36 | 15.86695 | 108.13921 | 4742 ft | 168 kts | 101° |
| 2026-04-22 14:37 | 15.86552 | 108.15086 | 4578 ft | 163 kts | 96° |
| 2026-04-22 14:37 | 15.86486 | 108.16255 | 4355 ft | 162 kts | 94° |
| 2026-04-22 14:37 | 15.86453 | 108.17424 | 4116 ft | 162 kts | 93° |
| 2026-04-22 14:37 | 15.86424 | 108.18591 | 3891 ft | 162 kts | 92° |
| 2026-04-22 14:38 | 15.86548 | 108.19742 | 3653 ft | 162 kts | 65° |
| 2026-04-22 14:38 | 15.87237 | 108.20655 | 3428 ft | 163 kts | 34° |
| 2026-04-22 14:38 | 15.88256 | 108.21158 | 3213 ft | 163 kts | 17° |
| 2026-04-22 14:38 | 15.89355 | 108.21446 | 2992 ft | 162 kts | 11° |
| 2026-04-22 14:39 | 15.90470 | 108.21670 | 2731 ft | 164 kts | 9° |
| 2026-04-22 14:39 | 15.91616 | 108.21682 | 2463 ft | 166 kts | 354° |
| 2026-04-22 14:39 | 15.92772 | 108.21518 | 2189 ft | 169 kts | 351° |
| 2026-04-22 14:40 | 15.94629 | 108.21200 | 1759 ft | 155 kts | 349° |
| 2026-04-22 14:40 | 15.96026 | 108.21001 | 1398 ft | 147 kts | 353° |
| 2026-04-22 14:40 | 15.97032 | 108.20873 | 1190 ft | 144 kts | 353° |
| 2026-04-22 14:40 | 15.98025 | 108.20749 | 1005 ft | 143 kts | 353° |
| 2026-04-22 14:41 | 15.99011 | 108.20600 | 812 ft | 142 kts | 352° |
| 2026-04-22 14:41 | 15.99977 | 108.20464 | 629 ft | 141 kts | 354° |
| 2026-04-22 14:41 | 16.00953 | 108.20334 | 465 ft | 141 kts | 353° |
| 2026-04-22 14:41 | 16.01920 | 108.20193 | 294 ft | 140 kts | 353° |
| 2026-04-22 14:42 | 16.02880 | 108.20055 | 99 ft | 139 kts | 353° |
| 2026-04-22 14:42 | 16.03799 | 108.19924 | 33 ft | 123 kts | 352° |
| 2026-04-22 14:42 | 16.04436 | 108.19833 | 35 ft | 65 kts | 352° |
| 2026-04-22 14:42 | 16.04757 | 108.19786 | 35 ft | 34 kts | 352° |
| 2026-04-22 14:43 | 16.04878 | 108.19818 | 35 ft | 16 kts | 70° |
| 2026-04-22 14:43 | 16.04890 | 108.19904 | 35 ft | 11 kts | 82° |
| 2026-04-22 14:43 | 16.04904 | 108.20008 | 33 ft | 17 kts | 82° |
| 2026-04-22 14:43 | 16.04941 | 108.20099 | 33 ft | 12 kts | 13° |
| 2026-04-22 14:44 | 16.05021 | 108.20090 | 34 ft | 11 kts | 351° |
| 2026-04-22 14:44 | 16.05103 | 108.20078 | 33 ft | 13 kts | 352° |
| 2026-04-22 14:44 | 16.05177 | 108.20067 | 34 ft | 3 kts | 352° |
| 2026-04-22 14:44 | 16.05198 | 108.20064 | 34 ft | 4 kts | 352° |
| 2026-04-22 14:45 | 16.05242 | 108.20084 | 34 ft | 8 kts | 61° |
| 2026-04-22 14:45 | 16.05253 | 108.20139 | 35 ft | 7 kts | 83° |
| 2026-04-22 14:45 | 16.05255 | 108.20171 | 34 ft | 3 kts | 84° |
| 2026-04-22 14:45 | 16.05257 | 108.20185 | 35 ft | 2 kts | 84° |
| 2026-04-22 14:46 | 16.05257 | 108.20186 | 35 ft | 0 kts | 84° |